Time;durP1;ratioP1;P1;durP2;ratioP2;P2;SDS_P1;SDS_P2;PMS_P1;PMS_P2;Temp;Humidity;BMP_temperature;BMP_pressure;BME280_temperature;BME280_humidity;BME280_pressure;Samples;Min_cycle;Max_cycle;Signal;HPM_P1;HPM_P2
2022/11/16 00:02:10;;;;;;;12.90;8.38;;;;;;;;;;6247096;23;20012;-69
2022/11/16 00:04:36;;;;;;;14.60;8.57;;;;;;;;;;6220024;23;20455;-69
2022/11/16 00:07:03;;;;;;;14.25;9.10;;;;;;;;;;6246956;23;20091;-69
2022/11/16 00:09:32;;;;;;;13.02;8.25;;;;;;;;;;6219757;23;20085;-69
2022/11/16 00:12:02;;;;;;;14.52;8.88;;;;;;;;;;6246719;23;20016;-69
2022/11/16 00:14:29;;;;;;;15.02;9.07;;;;;;;;;;6247000;23;20044;-69
2022/11/16 00:16:56;;;;;;;13.98;8.48;;;;;;;;;;6246849;23;20008;-69
2022/11/16 00:19:22;;;;;;;16.20;9.63;;;;;;;;;;6246700;23;20027;-69
2022/11/16 00:21:49;;;;;;;13.85;9.73;;;;;;;;;;6246724;23;20018;-69
2022/11/16 00:24:16;;;;;;;19.30;10.85;;;;;;;;;;6219777;23;20016;-69
2022/11/16 00:26:42;;;;;;;15.32;10.05;;;;;;;;;;6246508;23;20020;-69
2022/11/16 00:29:13;;;;;;;13.23;9.57;;;;;;;;;;6219809;23;20024;-68
2022/11/16 00:31:39;;;;;;;19.50;10.48;;;;;;;;;;6246665;23;20050;-69
2022/11/16 00:34:05;;;;;;;14.10;9.70;;;;;;;;;;6219836;23;20016;-69
2022/11/16 00:36:32;;;;;;;14.25;9.55;;;;;;;;;;6219891;23;20528;-68
2022/11/16 00:38:58;;;;;;;15.23;10.02;;;;;;;;;;6246889;23;20078;-68
2022/11/16 00:41:24;;;;;;;13.68;9.15;;;;;;;;;;6219866;23;20040;-68
2022/11/16 00:43:50;;;;;;;16.13;9.73;;;;;;;;;;6219670;23;20016;-69
2022/11/16 00:46:16;;;;;;;16.95;10.43;;;;;;;;;;6219876;23;20047;-68
2022/11/16 00:48:42;;;;;;;15.93;10.38;;;;;;;;;;6246282;23;20054;-69
2022/11/16 00:51:08;;;;;;;16.25;10.07;;;;;;;;;;6246528;23;20016;-69
2022/11/16 00:53:34;;;;;;;19.45;10.82;;;;;;;;;;6246436;23;20338;-69
2022/11/16 00:56:01;;;;;;;20.42;10.73;;;;;;;;;;6219634;23;20020;-69
2022/11/16 00:58:27;;;;;;;15.77;11.23;;;;;;;;;;6246546;23;20058;-69
2022/11/16 01:00:53;;;;;;;17.80;11.45;;;;;;;;;;6219593;23;20020;-69
2022/11/16 01:03:19;;;;;;;19.30;12.00;;;;;;;;;;6246322;23;20020;-69
2022/11/16 01:05:45;;;;;;;17.70;12.02;;;;;;;;;;6246592;23;20433;-68
2022/11/16 01:08:11;;;;;;;21.83;12.52;;;;;;;;;;6246186;22;20016;-69
2022/11/16 01:10:38;;;;;;;18.92;11.93;;;;;;;;;;6218946;23;20027;-69
2022/11/16 01:13:04;;;;;;;19.30;12.52;;;;;;;;;;6219913;23;20048;-69
2022/11/16 01:15:31;;;;;;;19.95;12.73;;;;;;;;;;6219301;23;20087;-68
2022/11/16 01:17:57;;;;;;;23.90;13.00;;;;;;;;;;6246429;23;20012;-68
2022/11/16 01:20:24;;;;;;;22.70;13.40;;;;;;;;;;6219144;23;20023;-68
2022/11/16 01:22:51;;;;;;;22.00;13.10;;;;;;;;;;6219505;23;20020;-68
2022/11/16 01:25:17;;;;;;;19.48;13.00;;;;;;;;;;6245970;23;20117;-68
2022/11/16 01:27:43;;;;;;;24.02;13.15;;;;;;;;;;6246296;23;20096;-68
2022/11/16 01:30:10;;;;;;;20.10;13.07;;;;;;;;;;6246367;23;20016;-68
2022/11/16 01:32:36;;;;;;;20.80;13.00;;;;;;;;;;6219325;23;20020;-68
2022/11/16 01:35:03;;;;;;;23.45;13.10;;;;;;;;;;6246081;23;20019;-68
2022/11/16 01:37:29;;;;;;;22.25;13.57;;;;;;;;;;6246343;23;20406;-68
2022/11/16 01:39:55;;;;;;;23.23;14.00;;;;;;;;;;6246249;23;20016;-68
2022/11/16 01:42:23;;;;;;;22.23;13.48;;;;;;;;;;6219363;23;20058;-68
2022/11/16 01:44:49;;;;;;;24.42;14.57;;;;;;;;;;6219053;23;20042;-68
2022/11/16 01:47:16;;;;;;;23.10;14.50;;;;;;;;;;6219070;23;20039;-68
2022/11/16 01:49:43;;;;;;;25.73;14.13;;;;;;;;;;6219412;23;20022;-68
2022/11/16 01:52:14;;;;;;;23.45;14.05;;;;;;;;;;6193975;23;20014;-67
2022/11/16 01:54:41;;;;;;;19.95;13.63;;;;;;;;;;6246218;23;20012;-67
2022/11/16 01:57:09;;;;;;;22.70;13.75;;;;;;;;;;6245961;23;20012;-67
2022/11/16 01:59:35;;;;;;;22.85;14.75;;;;;;;;;;6245976;23;20343;-67
2022/11/16 02:02:02;;;;;;;21.13;15.00;;;;;;;;;;6218935;23;20020;-67
2022/11/16 02:04:28;;;;;;;21.42;14.90;;;;;;;;;;6246086;23;20066;-67
2022/11/16 02:07:01;;;;;;;21.88;14.43;;;;;;;;;;6245850;23;20016;-68
2022/11/16 02:09:56;;;;;;;25.80;15.63;;;;;;;;;;6245496;22;20466;-68
2022/11/16 02:12:22;;;;;;;23.35;14.02;;;;;;;;;;6218919;23;20030;-68
2022/11/16 02:14:54;;;;;;;23.77;14.50;;;;;;;;;;6193864;23;20351;-68
2022/11/16 02:17:23;;;;;;;23.70;14.85;;;;;;;;;;6246268;23;20070;-68
2022/11/16 02:20:01;;;;;;;29.13;15.52;;;;;;;;;;6218773;23;20434;-68
2022/11/16 02:22:41;;;;;;;23.85;15.27;;;;;;;;;;6218888;23;20103;-68
2022/11/16 02:25:09;;;;;;;23.88;14.98;;;;;;;;;;6218773;23;20020;-68
2022/11/16 02:27:38;;;;;;;24.92;15.52;;;;;;;;;;6245391;23;20016;-68
2022/11/16 02:30:04;;;;;;;23.58;15.68;;;;;;;;;;6219005;23;20316;-68
2022/11/16 02:32:31;;;;;;;23.85;15.45;;;;;;;;;;6245523;23;20046;-68
2022/11/16 02:35:00;;;;;;;27.00;15.77;;;;;;;;;;6245718;23;20050;-68
2022/11/16 02:37:29;;;;;;;23.50;15.43;;;;;;;;;;6245760;23;20012;-68
2022/11/16 02:39:57;;;;;;;28.90;15.52;;;;;;;;;;6218714;23;20103;-68
2022/11/16 02:42:36;;;;;;;24.15;15.20;;;;;;;;;;6245503;23;20012;-68
2022/11/16 02:45:02;;;;;;;26.13;15.18;;;;;;;;;;6245593;23;20023;-68
2022/11/16 02:47:31;;;;;;;24.15;14.85;;;;;;;;;;6218787;23;20012;-67
2022/11/16 02:50:00;;;;;;;23.70;15.70;;;;;;;;;;6245666;23;20378;-68
2022/11/16 02:52:27;;;;;;;24.42;15.77;;;;;;;;;;6218377;23;20027;-68
2022/11/16 02:54:53;;;;;;;25.38;16.00;;;;;;;;;;6245786;23;20039;-69
2022/11/16 02:57:32;;;;;;;25.63;15.05;;;;;;;;;;6245262;23;20093;-68
2022/11/16 02:59:59;;;;;;;25.70;16.70;;;;;;;;;;6218519;23;20016;-68
2022/11/16 03:02:37;;;;;;;23.98;14.75;;;;;;;;;;6245585;23;20019;-68
2022/11/16 03:05:12;;;;;;;24.02;15.55;;;;;;;;;;6245349;23;20042;-68
2022/11/16 03:07:45;;;;;;;21.75;14.73;;;;;;;;;;6218326;22;20019;-69
2022/11/16 03:11:58;;;;;;;;;;;;;;;;;;6193816;23;20024;-68
2022/11/16 03:12:58;;;;;;;22.83;14.57;;;;;;;;;;6218424;23;19969;-68
2022/11/16 03:15:25;;;;;;;27.60;15.43;;;;;;;;;;6218349;23;20469;-68
2022/11/16 03:17:51;;;;;;;21.80;14.93;;;;;;;;;;6193439;23;20016;-68
2022/11/16 03:20:23;;;;;;;22.80;14.30;;;;;;;;;;6245272;23;20388;-68
2022/11/16 03:22:50;;;;;;;23.55;14.40;;;;;;;;;;6245540;23;20020;-68
2022/11/16 03:25:17;;;;;;;22.13;14.90;;;;;;;;;;6245642;23;20327;-68
2022/11/16 03:27:46;;;;;;;22.63;15.32;;;;;;;;;;6245037;23;20075;-68
2022/11/16 03:30:18;;;;;;;23.45;14.60;;;;;;;;;;6245406;23;20017;-68
2022/11/16 03:32:56;;;;;;;21.60;14.07;;;;;;;;;;6218835;23;20070;-69
2022/11/16 03:35:26;;;;;;;24.25;14.70;;;;;;;;;;6220213;23;20069;-68
2022/11/16 03:37:53;;;;;;;21.90;15.15;;;;;;;;;;6247330;23;20043;-68
2022/11/16 03:40:20;;;;;;;22.90;15.18;;;;;;;;;;6247525;23;20016;-68
2022/11/16 03:42:48;;;;;;;23.23;14.88;;;;;;;;;;6247051;23;20089;-68
2022/11/16 03:45:15;;;;;;;22.13;14.88;;;;;;;;;;6247412;23;20012;-68
2022/11/16 03:47:41;;;;;;;24.98;14.48;;;;;;;;;;6195295;23;20016;-68
2022/11/16 03:50:08;;;;;;;24.80;15.18;;;;;;;;;;6246992;23;20027;-68
2022/11/16 03:52:34;;;;;;;23.10;14.85;;;;;;;;;;6220144;23;20020;-68
2022/11/16 03:55:00;;;;;;;24.98;14.75;;;;;;;;;;6247394;23;20023;-68
2022/11/16 03:57:26;;;;;;;22.55;14.32;;;;;;;;;;6220161;23;20016;-68
2022/11/16 03:59:53;;;;;;;23.48;13.98;;;;;;;;;;6220161;23;20047;-68
2022/11/16 04:02:19;;;;;;;20.73;13.65;;;;;;;;;;6247366;23;20320;-68
2022/11/16 04:24:12;;;;;;;19.33;12.82;;;;;;;;;;6247068;23;20098;-68
2022/11/16 04:29:24;;;;;;;19.42;13.63;;;;;;;;;;6246327;23;20134;-68
2022/11/16 04:40:05;;;;;;;22.73;13.48;;;;;;;;;;6246659;23;20031;-68
2022/11/16 04:42:31;;;;;;;17.70;12.73;;;;;;;;;;6246854;23;20012;-68
2022/11/16 04:47:41;;;;;;;20.20;13.18;;;;;;;;;;6246882;23;20395;-68
2022/11/16 04:50:08;;;;;;;20.02;13.15;;;;;;;;;;6219623;23;20026;-68
2022/11/16 04:52:34;;;;;;;21.10;13.35;;;;;;;;;;6220141;23;20016;-68
2022/11/16 04:55:00;;;;;;;18.45;12.68;;;;;;;;;;6246847;23;20040;-68
2022/11/16 04:57:26;;;;;;;19.05;12.75;;;;;;;;;;6219712;23;20019;-68
2022/11/16 04:59:52;;;;;;;19.30;13.52;;;;;;;;;;6246800;23;20013;-68
2022/11/16 05:02:18;;;;;;;19.88;14.38;;;;;;;;;;6219663;23;20022;-68
2022/11/16 05:04:44;;;;;;;23.27;14.15;;;;;;;;;;6194800;23;20047;-68
2022/11/16 05:07:12;;;;;;;19.88;13.02;;;;;;;;;;6246779;23;20008;-68
2022/11/16 05:09:41;;;;;;;18.65;12.90;;;;;;;;;;6246488;22;20091;-68
2022/11/16 05:12:07;;;;;;;19.42;13.07;;;;;;;;;;6194615;23;20020;-67
2022/11/16 05:14:33;;;;;;;18.05;12.57;;;;;;;;;;6219332;23;20016;-68
2022/11/16 05:16:59;;;;;;;21.15;13.55;;;;;;;;;;6219524;23;20016;-68
2022/11/16 05:22:10;;;;;;;21.55;12.60;;;;;;;;;;6246738;23;20387;-68
2022/11/16 05:24:36;;;;;;;19.17;12.63;;;;;;;;;;6246575;23;20012;-68
2022/11/16 05:27:12;;;;;;;18.80;13.00;;;;;;;;;;6218691;23;20028;-68
2022/11/16 05:29:39;;;;;;;21.50;13.55;;;;;;;;;;6219320;23;20063;-68
2022/11/16 05:32:05;;;;;;;23.15;14.27;;;;;;;;;;6219332;23;20454;-69
2022/11/16 05:34:32;;;;;;;16.90;11.73;;;;;;;;;;6246143;23;20091;-68
2022/11/16 05:36:58;;;;;;;15.57;11.00;;;;;;;;;;6246265;23;20023;-68
2022/11/16 05:39:24;;;;;;;13.60;10.73;;;;;;;;;;6246118;23;20051;-68
2022/11/16 05:41:51;;;;;;;17.10;10.85;;;;;;;;;;6246190;23;20339;-68
2022/11/16 05:44:17;;;;;;;15.55;10.77;;;;;;;;;;6246059;23;20012;-68
2022/11/16 05:46:43;;;;;;;15.57;11.00;;;;;;;;;;6218917;23;20442;-68
2022/11/16 05:49:10;;;;;;;15.85;11.18;;;;;;;;;;6246088;23;20019;-68
2022/11/16 05:51:37;;;;;;;16.38;10.50;;;;;;;;;;6245856;23;20024;-68
2022/11/16 05:54:04;;;;;;;15.80;10.35;;;;;;;;;;6246097;23;20015;-68
2022/11/16 05:56:30;;;;;;;15.13;10.18;;;;;;;;;;6245844;23;20023;-68
2022/11/16 05:58:57;;;;;;;16.02;9.88;;;;;;;;;;6218936;23;20016;-68
2022/11/16 06:01:23;;;;;;;15.02;10.25;;;;;;;;;;6245859;23;20016;-68
2022/11/16 06:03:49;;;;;;;17.02;11.45;;;;;;;;;;6218932;23;20015;-68
2022/11/16 06:06:15;;;;;;;16.45;10.57;;;;;;;;;;6246085;23;20339;-68
2022/11/16 06:08:41;;;;;;;16.90;11.07;;;;;;;;;;6245920;22;20079;-68
2022/11/16 06:11:09;;;;;;;17.00;10.68;;;;;;;;;;6218874;23;20528;-68
2022/11/16 06:13:35;;;;;;;18.83;10.68;;;;;;;;;;6218814;23;20083;-68
2022/11/16 06:16:02;;;;;;;18.05;11.73;;;;;;;;;;6245841;23;20032;-68
2022/11/16 06:18:28;;;;;;;21.27;12.52;;;;;;;;;;6245603;23;20047;-68
2022/11/16 06:20:54;;;;;;;18.63;13.15;;;;;;;;;;6218752;23;20016;-68
2022/11/16 06:23:20;;;;;;;21.05;13.85;;;;;;;;;;6245697;23;20023;-68
2022/11/16 06:25:46;;;;;;;21.70;13.52;;;;;;;;;;6245670;23;20015;-68
2022/11/16 06:28:13;;;;;;;18.55;11.55;;;;;;;;;;6218592;23;20024;-68
2022/11/16 06:30:40;;;;;;;19.55;13.05;;;;;;;;;;6245595;23;20020;-68
2022/11/16 06:33:06;;;;;;;19.80;12.20;;;;;;;;;;6245490;23;20016;-68
2022/11/16 06:35:32;;;;;;;21.48;12.75;;;;;;;;;;6218643;23;20514;-68
2022/11/16 06:37:58;;;;;;;19.30;12.52;;;;;;;;;;6219134;23;20012;-67
2022/11/16 06:40:24;;;;;;;20.42;12.68;;;;;;;;;;6219570;23;20016;-67
2022/11/16 06:42:50;;;;;;;19.52;11.52;;;;;;;;;;6219584;23;20012;-67
2022/11/16 06:45:17;;;;;;;19.92;12.65;;;;;;;;;;6218580;23;20315;-67
2022/11/16 06:47:43;;;;;;;17.63;11.38;;;;;;;;;;6245697;23;20395;-67
2022/11/16 06:50:09;;;;;;;19.88;12.07;;;;;;;;;;6218643;23;20020;-67
2022/11/16 06:52:35;;;;;;;20.65;11.82;;;;;;;;;;6245439;23;20016;-67
2022/11/16 06:55:01;;;;;;;24.25;13.48;;;;;;;;;;6218521;23;20012;-67
2022/11/16 06:57:27;;;;;;;19.45;12.45;;;;;;;;;;6245679;23;20020;-67
2022/11/16 06:59:54;;;;;;;19.15;11.65;;;;;;;;;;6245394;23;20158;-67
2022/11/16 07:02:21;;;;;;;20.23;11.98;;;;;;;;;;6218543;23;20043;-67
2022/11/16 07:04:47;;;;;;;19.83;11.30;;;;;;;;;;6245217;23;20344;-67
2022/11/16 07:07:15;;;;;;;18.25;11.30;;;;;;;;;;6245454;23;20031;-67
2022/11/16 07:09:43;;;;;;;17.45;11.75;;;;;;;;;;6244904;22;20020;-67
2022/11/16 07:12:09;;;;;;;20.73;12.32;;;;;;;;;;6218414;23;20012;-67
2022/11/16 07:14:35;;;;;;;17.77;12.07;;;;;;;;;;6245281;23;20312;-68
2022/11/16 07:17:01;;;;;;;24.08;12.55;;;;;;;;;;6245749;23;20090;-67
2022/11/16 07:19:27;;;;;;;20.20;11.32;;;;;;;;;;6218483;23;20020;-67
2022/11/16 07:21:53;;;;;;;17.70;11.35;;;;;;;;;;6218624;23;20016;-68
2022/11/16 07:24:19;;;;;;;18.27;11.85;;;;;;;;;;6218778;23;20070;-68
2022/11/16 07:26:45;;;;;;;18.40;11.90;;;;;;;;;;6217234;23;20019;-68
2022/11/16 07:29:12;;;;;;;20.67;12.63;;;;;;;;;;6218796;23;20016;-68
2022/11/16 07:31:38;;;;;;;18.38;11.23;;;;;;;;;;6246156;23;20020;-68
2022/11/16 07:34:04;;;;;;;18.40;11.27;;;;;;;;;;6245422;23;20089;-68
2022/11/16 07:36:30;;;;;;;15.48;11.05;;;;;;;;;;6245638;23;20071;-68
2022/11/16 07:38:56;;;;;;;17.23;10.57;;;;;;;;;;6245673;23;20091;-68
2022/11/16 07:41:23;;;;;;;20.38;11.32;;;;;;;;;;6218740;23;20016;-68
2022/11/16 07:43:49;;;;;;;17.00;10.55;;;;;;;;;;6218949;23;20012;-68
2022/11/16 07:46:17;;;;;;;17.50;11.10;;;;;;;;;;6246086;23;20012;-68
2022/11/16 07:48:43;;;;;;;19.45;11.75;;;;;;;;;;6218850;23;20134;-68
2022/11/16 07:51:13;;;;;;;19.20;10.55;;;;;;;;;;6245817;23;20016;-68
2022/11/16 07:53:40;;;;;;;16.20;11.07;;;;;;;;;;6245570;23;20013;-68
2022/11/16 07:56:07;;;;;;;18.33;11.55;;;;;;;;;;6218668;23;20012;-68
2022/11/16 07:58:33;;;;;;;16.30;11.10;;;;;;;;;;6245797;23;20122;-68
2022/11/16 08:01:07;;;;;;;18.38;10.63;;;;;;;;;;6193754;23;20562;-68
2022/11/16 08:03:33;;;;;;;17.38;10.70;;;;;;;;;;6218413;23;20023;-68
2022/11/16 08:06:04;;;;;;;17.65;11.73;;;;;;;;;;6218693;23;20091;-68
2022/11/16 08:08:31;;;;;;;19.98;10.13;;;;;;;;;;6218581;23;20020;-68
2022/11/16 08:11:01;;;;;;;16.00;10.80;;;;;;;;;;6218581;23;20320;-68
2022/11/16 08:13:30;;;;;;;15.80;11.35;;;;;;;;;;6219378;23;20087;-67
2022/11/16 08:16:00;;;;;;;16.30;11.15;;;;;;;;;;6245778;23;20020;-67
2022/11/16 08:18:26;;;;;;;18.92;10.60;;;;;;;;;;6245786;23;20012;-67
2022/11/16 08:20:52;;;;;;;16.05;9.95;;;;;;;;;;6247579;23;20020;-67
2022/11/16 08:23:18;;;;;;;20.77;11.75;;;;;;;;;;6246079;22;20117;-67
2022/11/16 08:25:44;;;;;;;15.48;10.45;;;;;;;;;;6247768;23;20012;-67
2022/11/16 08:28:10;;;;;;;14.85;10.15;;;;;;;;;;6220323;23;20020;-67
2022/11/16 08:30:38;;;;;;;16.13;10.65;;;;;;;;;;6220284;23;20031;-67
2022/11/16 08:33:06;;;;;;;17.00;10.20;;;;;;;;;;6247333;23;20012;-67
2022/11/16 08:35:33;;;;;;;17.55;11.55;;;;;;;;;;6220565;23;20023;-67
2022/11/16 08:38:00;;;;;;;16.85;10.95;;;;;;;;;;6247122;23;20008;-68
2022/11/16 08:40:26;;;;;;;16.38;10.80;;;;;;;;;;6247312;23;20121;-68
2022/11/16 08:42:55;;;;;;;18.67;11.52;;;;;;;;;;6220374;23;20519;-68
2022/11/16 08:45:24;;;;;;;18.23;10.45;;;;;;;;;;6247020;23;20459;-68
2022/11/16 08:47:51;;;;;;;15.57;10.02;;;;;;;;;;6246960;23;20039;-68
2022/11/16 08:50:18;;;;;;;16.52;10.40;;;;;;;;;;6220676;23;20490;-68
2022/11/16 08:52:44;;;;;;;17.63;10.07;;;;;;;;;;6220295;23;20351;-68
2022/11/16 08:55:12;;;;;;;17.42;10.88;;;;;;;;;;6194891;23;20023;-68
2022/11/16 08:57:39;;;;;;;23.27;11.65;;;;;;;;;;6247110;23;20079;-68
2022/11/16 09:00:05;;;;;;;18.08;10.88;;;;;;;;;;6193570;23;20022;-68
2022/11/16 09:02:31;;;;;;;16.00;10.43;;;;;;;;;;6246509;23;20324;-68
2022/11/16 09:04:58;;;;;;;16.33;10.80;;;;;;;;;;6247197;23;20012;-68
2022/11/16 09:07:24;;;;;;;19.00;11.75;;;;;;;;;;6246899;23;20013;-68
2022/11/16 09:09:50;;;;;;;18.95;11.15;;;;;;;;;;6219636;23;20415;-68
2022/11/16 09:12:16;;;;;;;17.70;10.65;;;;;;;;;;6195025;23;20350;-68
2022/11/16 09:14:42;;;;;;;21.33;12.15;;;;;;;;;;6219923;23;20079;-68
2022/11/16 09:17:08;;;;;;;17.52;11.23;;;;;;;;;;6246784;23;20008;-68
2022/11/16 09:19:34;;;;;;;19.80;12.20;;;;;;;;;;6219932;23;20044;-68
2022/11/16 09:22:00;;;;;;;27.38;12.57;;;;;;;;;;6219986;23;20078;-68
2022/11/16 09:24:27;;;;;;;21.80;12.90;;;;;;;;;;6219817;23;20099;-68
2022/11/16 09:26:55;;;;;;;19.77;11.10;;;;;;;;;;6246479;23;20023;-68
2022/11/16 09:29:21;;;;;;;21.27;13.13;;;;;;;;;;6246398;23;20016;-68
2022/11/16 09:31:47;;;;;;;22.52;13.95;;;;;;;;;;6220021;23;20019;-68
2022/11/16 09:34:14;;;;;;;22.25;13.38;;;;;;;;;;6246855;23;20344;-68
2022/11/16 09:36:40;;;;;;;23.42;13.18;;;;;;;;;;6219966;23;20012;-68
2022/11/16 09:39:06;;;;;;;20.60;13.70;;;;;;;;;;6219913;23;20312;-68
2022/11/16 09:41:35;;;;;;;25.48;13.93;;;;;;;;;;6219998;23;20016;-68
2022/11/16 09:44:07;;;;;;;23.48;13.15;;;;;;;;;;6219731;23;20509;-68
2022/11/16 09:46:36;;;;;;;24.63;14.02;;;;;;;;;;6246533;23;20017;-68
2022/11/16 09:49:04;;;;;;;25.20;14.45;;;;;;;;;;6220104;23;20047;-68
2022/11/16 09:51:32;;;;;;;24.27;14.98;;;;;;;;;;6246546;23;20047;-68
2022/11/16 09:54:02;;;;;;;26.35;14.68;;;;;;;;;;6246425;23;20022;-68
2022/11/16 09:56:30;;;;;;;27.70;15.57;;;;;;;;;;6246373;23;20054;-68
2022/11/16 09:59:11;;;;;;;28.90;15.45;;;;;;;;;;6219420;23;20020;-68
2022/11/16 10:01:43;;;;;;;27.08;15.75;;;;;;;;;;6246698;23;20008;-68
2022/11/16 10:04:13;;;;;;;25.13;14.85;;;;;;;;;;6246456;23;20013;-68
2022/11/16 10:06:51;;;;;;;22.70;14.68;;;;;;;;;;6219399;23;20012;-68
2022/11/16 10:09:18;;;;;;;26.70;14.70;;;;;;;;;;6219330;23;20134;-69
2022/11/16 10:11:47;;;;;;;21.00;12.45;;;;;;;;;;6246616;23;20039;-69
2022/11/16 10:14:37;;;;;;;21.70;13.32;;;;;;;;;;6217956;23;20024;-68
2022/11/16 10:17:09;;;;;;;20.63;12.82;;;;;;;;;;6244323;23;20016;-68
2022/11/16 10:19:35;;;;;;;23.40;13.98;;;;;;;;;;6217645;23;20508;-68
2022/11/16 10:22:01;;;;;;;26.02;13.57;;;;;;;;;;6246000;23;20031;-68
2022/11/16 10:24:33;;;;;;;21.73;13.23;;;;;;;;;;6245923;23;20095;-69
2022/11/16 10:27:22;;;;;;;18.63;12.07;;;;;;;;;;6245949;23;20055;-69
2022/11/16 10:29:48;;;;;;;22.70;12.55;;;;;;;;;;6218771;23;20026;-69
2022/11/16 10:32:14;;;;;;;26.20;12.88;;;;;;;;;;6245606;23;20020;-68
2022/11/16 10:34:51;;;;;;;19.48;11.68;;;;;;;;;;6246258;23;20335;-68
2022/11/16 10:37:17;;;;;;;18.55;10.73;;;;;;;;;;6218991;23;20431;-68
2022/11/16 10:39:44;;;;;;;19.63;11.27;;;;;;;;;;6246213;23;20012;-68
2022/11/16 10:42:16;;;;;;;19.10;10.80;;;;;;;;;;6218616;23;20047;-68
2022/11/16 10:44:47;;;;;;;21.10;10.75;;;;;;;;;;6219307;23;20016;-68
2022/11/16 10:47:22;;;;;;;19.25;9.98;;;;;;;;;;6246038;23;20014;-69
2022/11/16 10:49:48;;;;;;;17.38;9.32;;;;;;;;;;6244503;23;20122;-69
2022/11/16 10:52:14;;;;;;;18.77;9.38;;;;;;;;;;6244805;23;20037;-69
2022/11/16 10:54:41;;;;;;;17.80;10.90;;;;;;;;;;6218209;23;20050;-69
2022/11/16 10:57:12;;;;;;;19.75;11.02;;;;;;;;;;6218636;23;20439;-69
2022/11/16 10:59:38;;;;;;;20.92;10.90;;;;;;;;;;6245329;23;20300;-69
2022/11/16 11:02:23;;;;;;;23.65;10.63;;;;;;;;;;6193200;23;20020;-69
2022/11/16 11:05:13;;;;;;;17.27;10.20;;;;;;;;;;6193334;23;20020;-68
2022/11/16 11:07:39;;;;;;;22.80;11.65;;;;;;;;;;6177402;22;20022;-69
2022/11/16 11:10:20;;;;;;;20.05;10.65;;;;;;;;;;6217788;23;20020;-69
2022/11/16 11:13:00;;;;;;;18.90;10.88;;;;;;;;;;6193130;23;20012;-69
2022/11/16 11:15:26;;;;;;;21.27;10.60;;;;;;;;;;6218030;23;20012;-70
2022/11/16 11:18:11;;;;;;;18.75;10.98;;;;;;;;;;6245739;23;20047;-69
2022/11/16 11:20:40;;;;;;;22.42;11.00;;;;;;;;;;6218299;23;20016;-68
2022/11/16 11:23:26;;;;;;;15.18;10.60;;;;;;;;;;6219975;23;20518;-68
2022/11/16 11:25:53;;;;;;;21.00;11.15;;;;;;;;;;6218826;23;20020;-68
2022/11/16 11:28:22;;;;;;;17.90;10.35;;;;;;;;;;6248882;23;20170;-68
2022/11/16 11:31:00;;;;;;;20.30;10.90;;;;;;;;;;6252150;23;20021;-68
2022/11/16 11:33:32;;;;;;;18.52;10.63;;;;;;;;;;6254292;23;20009;-68
2022/11/16 11:36:00;;;;;;;17.52;10.02;;;;;;;;;;6218971;23;20119;-68
2022/11/16 11:38:26;;;;;;;20.55;10.43;;;;;;;;;;6194597;23;20012;-68
2022/11/16 11:40:57;;;;;;;24.80;10.15;;;;;;;;;;6218180;23;20481;-68
2022/11/16 11:43:24;;;;;;;13.80;9.63;;;;;;;;;;6193083;23;20015;-68
2022/11/16 11:46:02;;;;;;;14.73;10.32;;;;;;;;;;6217816;23;20029;-69
2022/11/16 11:48:47;;;;;;;22.02;9.68;;;;;;;;;;6218019;23;20016;-69
2022/11/16 11:51:37;;;;;;;19.13;10.10;;;;;;;;;;6242996;23;20074;-69
2022/11/16 11:54:04;;;;;;;15.82;9.02;;;;;;;;;;6203557;23;20012;-69
2022/11/16 11:56:32;;;;;;;14.63;9.00;;;;;;;;;;6219948;23;20018;-69
2022/11/16 11:58:58;;;;;;;25.30;8.95;;;;;;;;;;6246839;23;20012;-69
2022/11/16 12:01:33;;;;;;;17.33;8.73;;;;;;;;;;6219920;23;20517;-68
2022/11/16 12:04:18;;;;;;;14.82;8.30;;;;;;;;;;6219666;23;20534;-69
2022/11/16 12:07:03;;;;;;;14.07;8.25;;;;;;;;;;6219675;23;20020;-69
2022/11/16 12:09:34;;;;;;;15.68;6.80;;;;;;;;;;6219615;23;20020;-68
2022/11/16 12:12:00;;;;;;;15.43;8.00;;;;;;;;;;6219856;23;20399;-69
2022/11/16 12:14:45;;;;;;;20.98;9.50;;;;;;;;;;6219735;23;20476;-69
2022/11/16 12:17:29;;;;;;;16.17;7.32;;;;;;;;;;6219593;23;20012;-69
2022/11/16 12:20:05;;;;;;;17.65;7.75;;;;;;;;;;6219482;23;20055;-68
2022/11/16 12:22:37;;;;;;;14.13;6.38;;;;;;;;;;6220144;23;20023;-69
2022/11/16 12:25:14;;;;;;;12.23;7.03;;;;;;;;;;6219302;23;20022;-69
2022/11/16 12:27:40;;;;;;;16.20;6.53;;;;;;;;;;6219604;23;20012;-69
2022/11/16 12:30:13;;;;;;;20.13;6.60;;;;;;;;;;6218727;23;20452;-69
2022/11/16 12:32:51;;;;;;;13.25;6.15;;;;;;;;;;6219316;23;20465;-70
2022/11/16 12:35:32;;;;;;;16.30;6.28;;;;;;;;;;6219765;23;20368;-76
2022/11/16 12:38:04;;;;;;;12.00;5.47;;;;;;;;;;6219544;23;20047;-69
2022/11/16 12:40:35;;;;;;;12.13;5.35;;;;;;;;;;6218795;23;20023;-69
2022/11/16 12:43:07;;;;;;;14.18;4.72;;;;;;;;;;6246602;23;20016;-69
2022/11/16 12:45:42;;;;;;;12.10;4.85;;;;;;;;;;6218839;23;20020;-69
2022/11/16 12:48:27;;;;;;;7.63;4.70;;;12.90;99.90;;;;;;6219747;23;20015;-69
2022/11/16 12:51:01;;;;;;;15.75;5.20;;;;;;;;;;6219867;23;20020;-69
2022/11/16 12:53:33;;;;;;;9.73;4.97;;;;;;;;;;6219842;23;20020;-69
2022/11/16 12:56:08;;;;;;;15.48;4.97;;;;;;;;;;6219898;23;20020;-69
2022/11/16 12:58:43;;;;;;;15.65;4.90;;;;;;;;;;6220035;23;20016;-69
2022/11/16 13:01:15;;;;;;;17.30;4.90;;;;;;;;;;6219810;23;20020;-69
2022/11/16 13:03:51;;;;;;;15.73;4.63;;;;;;;;;;6219845;23;20016;-69
2022/11/16 13:06:19;;;;;;;16.08;5.45;;;;;;;;;;6219776;23;20027;-69
2022/11/16 13:08:54;;;;;;;13.82;4.53;;;;;;;;;;6246984;22;20012;-68
2022/11/16 13:11:24;;;;;;;13.40;4.47;;;;;;;;;;6219702;23;20050;-68
2022/11/16 13:13:52;;;;;;;10.07;3.80;;;;;;;;;;6219903;23;20334;-68
2022/11/16 13:16:19;;;;;;;8.60;3.40;;;;;;;;;;6220060;23;20023;-68
2022/11/16 13:18:45;;;;;;;13.10;4.22;;;;;;;;;;6246723;23;20016;-68
2022/11/16 13:21:27;;;;;;;13.65;3.58;;;;;;;;;;6219802;23;20162;-68
2022/11/16 13:23:59;;;;;;;11.75;3.33;;;;;;;;;;6246432;23;20279;-68
2022/11/16 13:26:44;;;;;;;9.95;3.45;;;;;;;;;;6246998;23;20069;-68
2022/11/16 13:29:29;;;;;;;12.13;3.20;;;13.60;99.90;;;;;;6219407;23;20016;-69
2022/11/16 13:31:58;;;;;;;17.73;3.90;;;;;;;;;;6220072;23;20317;-69
2022/11/16 13:34:26;;;;;;;9.93;3.40;;;;;;;;;;6244970;23;20017;-69
2022/11/16 13:36:52;;;;;;;11.77;3.08;;;;;;;;;;6219588;23;20430;-69
2022/11/16 13:39:19;;;;;;;12.20;3.80;;;;;;;;;;6219600;23;20111;-69
2022/11/16 13:41:46;;;;;;;9.38;3.03;;;;;;;;;;6219545;23;20008;-69
2022/11/16 13:44:19;;;;;;;11.13;3.55;;;;;;;;;;6219554;23;20020;-69
2022/11/16 13:46:54;;;;;;;22.02;4.80;;;;;;;;;;6219491;23;20069;-69
2022/11/16 13:49:23;;;;;;;14.13;3.25;;;;;;;;;;6219376;23;20070;-69
2022/11/16 13:51:51;;;;;;;10.45;3.40;;;;;;;;;;6219453;23;20347;-69
2022/11/16 13:54:26;;;;;;;15.48;3.40;;;;;;;;;;6219432;23;20335;-69
2022/11/16 13:56:52;;;;;;;17.33;3.50;;;;;;;;;;6246436;23;20114;-69
2022/11/16 13:59:23;;;;;;;12.40;4.75;;;;;;;;;;6246429;23;20014;-69
2022/11/16 14:02:03;;;;;;;16.63;3.88;;;;;;;;;;6219229;23;20016;-69
2022/11/16 14:04:35;;;;;;;13.93;3.60;;;;;;;;;;6219517;23;20042;-70
2022/11/16 14:07:01;;;;;;;12.30;3.97;;;;;;;;;;6246138;23;20043;-69
2022/11/16 14:09:43;;;;;;;12.88;3.65;;;;;;;;;;6219229;23;20023;-69
2022/11/16 14:12:28;;;;;;;10.80;3.63;;;;;;;;;;6219411;23;20020;-69
2022/11/16 14:15:02;;;;;;;14.48;3.83;;;;;;;;;;6219145;23;20020;-69
2022/11/16 14:17:47;;;;;;;15.13;5.10;;;;;;;;;;6219356;23;20008;-69
2022/11/16 14:20:13;;;;;;;11.68;4.05;;;;;;;;;;6218203;23;20016;-69
2022/11/16 14:22:51;;;;;;;16.45;4.43;;;;;;;;;;6244760;23;20111;-69
2022/11/16 14:25:28;;;;;;;16.67;3.50;;;;;;;;;;6219240;23;20039;-69
2022/11/16 14:27:54;;;;;;;11.43;4.03;;;;;;;;;;6219257;23;20148;-69
2022/11/16 14:30:29;;;;;;;23.80;4.45;;;;;;;;;;6184422;23;20028;-69
2022/11/16 14:32:56;;;;;;;13.98;3.30;;;;;;;;;;6184023;23;20447;-69
2022/11/16 14:35:22;;;;;;;16.45;3.67;;;;;;;;;;6159322;23;20021;-69
2022/11/16 14:37:55;;;;;;;13.55;3.22;;;;;;;;;;6184027;23;20017;-69
2022/11/16 14:40:21;;;;;;;17.05;3.85;;;;;;;;;;6159120;23;20443;-69
2022/11/16 14:43:03;;;;;;;15.32;4.05;;;;;;;;;;6185500;23;20088;-69
2022/11/16 14:45:31;;;;;;;12.77;3.27;;;;;;;;;;6185680;23;20013;-69
2022/11/16 14:48:02;;;;;;;12.70;2.90;;;;;;;;;;6183979;23;20491;-69
2022/11/16 14:50:31;;;;;;;18.70;3.45;;;;;;;;;;6185355;23;20013;-69
2022/11/16 14:53:00;;;;;;;13.48;3.10;;;;;;;;;;6183967;23;20017;-69
2022/11/16 14:55:27;;;;;;;17.58;4.18;;;;;;;;;;6185646;23;20089;-69
2022/11/16 14:58:13;;;;;;;12.80;3.20;;;;;;;;;;6183827;23;20048;-69
2022/11/16 15:00:39;;;;;;;16.20;3.75;;;;;;;;;;6173433;23;20421;-69
2022/11/16 15:03:06;;;;;;;14.95;3.88;;;;;;;;;;6185277;23;20400;-69
2022/11/16 15:05:36;;;;;;;13.80;3.88;;;;;;;;;;6185293;23;20017;-69
2022/11/16 15:08:05;;;;;;;11.98;3.28;;;;;;;;;;6183376;23;20439;-69
2022/11/16 15:10:31;;;;;;;21.55;3.83;;;;;;;;;;6183427;23;20017;-69